Terminal Aerodrome Forecast
Issued by NWS

Home | Current Version | Previous Version | Text Only | Print | Product List | Glossary On
Versions: 1 2 3 4 5 6 7 8 9 10 11 12 13 14 15 16 17 18 19 20 21 22
000
FTUS43 KMPX 241017 AAA
TAFAXN
TAF AMD
KAXN 241017Z 2410/2506 07006KT 1SM BR OVC003
      TEMPO 2410/2414 1/4SM FG VV002
     FM241500 17013G20KT P6SM SCT020 BKN250
     FM241800 20013G21KT P6SM VCSH SCT025 BKN090
     FM250000 27007KT 6SM -SHRA BR OVC010=

USA.gov is the U.S. government's official web portal to all federal, state and local government web resources and services.